Terminal Aerodrome Forecast
Issued by NWS

Home | Current Version | Previous Version | Text Only | Print | Product List | Glossary On
Versions: 1 2 3 4 5 6 7 8 9 10 11 12 13 14 15 16 17 18 19 20 21
126
FTUS46 KEKA 051811 CCA
TAFUKI
TAF COR
KUKI 051811Z 0518/0618 00000KT P6SM OVC003
     FM051900 00000KT P6SM FEW007 BKN200
     FM052300 29003KT P6SM SCT100 BKN200
     FM060800 00000KT 2SM BR FEW005 BKN020
     FM061200 00000KT 1/2SM FG VV003=

USA.gov is the U.S. government's official web portal to all federal, state and local government web resources and services.